Weather at Vermilion Health Centre Heliport

Public forecast

Using degrees Celsius for public forecast. Weather courtesy of forecast.io.

Closest aviation weather report (METAR) to Vermilion Health Centre Heliport

Closest report is Lloydminster Airport, 28.8 nm (53.3 km) E. Retrieved 2021/01/22 05:37 UTC (0 seconds ago):

CYLL 220537Z AUTO 34010G15KT 9SM -SN OVC015 M07/M10 A3005 RMK SLP224

Closest aviation forecast (TAF) to Vermilion Health Centre Heliport

Closest forecast is Lloydminster Airport, 28.8 nm (53.3 km) E. Retrieved 2021-01-22 00:39 UTC (5 hours ago):

TAF TAF CYLL 212338Z 2200/2212 30008KT P6SM SCT010 BKN025 OVC080 TEMPO 2200/2203 5SM -SHSN OVC010 FM220300 30006KT P6SM SCT015 BKN030 TEMPO 2203/2212 P6SM -SN OVC015 RMK NXT FCST BY 220600Z